sensor_id;sensor_type;location;lat;lon;timestamp;temperature;humidity
46139;DHT22;32398;49.112;8.598;2022-11-18T00:01:55;10.20;99.90
46139;DHT22;32398;49.112;8.598;2022-11-18T00:04:22;10.20;99.90
46139;DHT22;32398;49.112;8.598;2022-11-18T00:06:48;10.20;99.90
46139;DHT22;32398;49.112;8.598;2022-11-18T00:09:15;10.20;99.90
46139;DHT22;32398;49.112;8.598;2022-11-18T00:11:42;10.20;99.90
46139;DHT22;32398;49.112;8.598;2022-11-18T00:14:27;10.20;99.90
46139;DHT22;32398;49.112;8.598;2022-11-18T00:16:54;10.20;99.90
46139;DHT22;32398;49.112;8.598;2022-11-18T00:19:22;10.20;99.90
46139;DHT22;32398;49.112;8.598;2022-11-18T00:21:49;10.10;99.90
46139;DHT22;32398;49.112;8.598;2022-11-18T00:24:15;10.20;99.90
46139;DHT22;32398;49.112;8.598;2022-11-18T00:26:42;10.10;99.90
46139;DHT22;32398;49.112;8.598;2022-11-18T00:29:09;10.10;99.90
46139;DHT22;32398;49.112;8.598;2022-11-18T00:31:37;10.10;99.90
46139;DHT22;32398;49.112;8.598;2022-11-18T00:34:04;10.10;99.90
46139;DHT22;32398;49.112;8.598;2022-11-18T00:36:31;10.10;99.90
46139;DHT22;32398;49.112;8.598;2022-11-18T00:38:57;10.10;99.90
46139;DHT22;32398;49.112;8.598;2022-11-18T00:41:24;10.10;99.90
46139;DHT22;32398;49.112;8.598;2022-11-18T00:44:10;10.10;99.90
46139;DHT22;32398;49.112;8.598;2022-11-18T00:46:37;10.10;99.90
46139;DHT22;32398;49.112;8.598;2022-11-18T00:49:04;10.00;99.90
46139;DHT22;32398;49.112;8.598;2022-11-18T00:51:31;10.10;99.90
46139;DHT22;32398;49.112;8.598;2022-11-18T00:53:57;10.00;99.90
46139;DHT22;32398;49.112;8.598;2022-11-18T00:56:24;10.10;99.90
46139;DHT22;32398;49.112;8.598;2022-11-18T00:58:50;10.00;99.90
46139;DHT22;32398;49.112;8.598;2022-11-18T01:01:17;10.00;99.90
46139;DHT22;32398;49.112;8.598;2022-11-18T01:03:45;10.00;99.90
46139;DHT22;32398;49.112;8.598;2022-11-18T01:06:12;10.00;99.90
46139;DHT22;32398;49.112;8.598;2022-11-18T01:08:38;10.00;99.90
46139;DHT22;32398;49.112;8.598;2022-11-18T01:11:05;10.00;99.90
46139;DHT22;32398;49.112;8.598;2022-11-18T01:13:47;10.00;99.90
46139;DHT22;32398;49.112;8.598;2022-11-18T01:16:16;10.00;99.90
46139;DHT22;32398;49.112;8.598;2022-11-18T01:18:44;10.00;99.90
46139;DHT22;32398;49.112;8.598;2022-11-18T01:21:11;10.00;99.90
46139;DHT22;32398;49.112;8.598;2022-11-18T01:23:38;10.00;99.90
46139;DHT22;32398;49.112;8.598;2022-11-18T01:26:05;10.00;99.90
46139;DHT22;32398;49.112;8.598;2022-11-18T01:28:32;10.00;99.90
46139;DHT22;32398;49.112;8.598;2022-11-18T01:31:02;10.00;99.90
46139;DHT22;32398;49.112;8.598;2022-11-18T01:33:28;10.00;99.90
46139;DHT22;32398;49.112;8.598;2022-11-18T01:35:56;9.90;99.90
46139;DHT22;32398;49.112;8.598;2022-11-18T01:38:23;10.00;99.90
46139;DHT22;32398;49.112;8.598;2022-11-18T01:40:50;9.90;99.90
46139;DHT22;32398;49.112;8.598;2022-11-18T01:43:17;9.90;99.90
46139;DHT22;32398;49.112;8.598;2022-11-18T01:45:44;10.00;99.90
46139;DHT22;32398;49.112;8.598;2022-11-18T01:48:12;9.90;99.90
46139;DHT22;32398;49.112;8.598;2022-11-18T01:50:40;9.90;99.90
46139;DHT22;32398;49.112;8.598;2022-11-18T01:53:12;10.00;99.90
46139;DHT22;32398;49.112;8.598;2022-11-18T01:55:41;9.90;99.90
46139;DHT22;32398;49.112;8.598;2022-11-18T01:58:11;9.90;99.90
46139;DHT22;32398;49.112;8.598;2022-11-18T02:00:40;9.90;99.90
46139;DHT22;32398;49.112;8.598;2022-11-18T02:03:06;9.80;99.90
46139;DHT22;32398;49.112;8.598;2022-11-18T02:05:33;9.90;99.90
46139;DHT22;32398;49.112;8.598;2022-11-18T02:08:01;9.90;99.90
46139;DHT22;32398;49.112;8.598;2022-11-18T02:10:29;9.90;99.90
46139;DHT22;32398;49.112;8.598;2022-11-18T02:12:56;9.90;99.90
46139;DHT22;32398;49.112;8.598;2022-11-18T02:15:25;9.90;99.90
46139;DHT22;32398;49.112;8.598;2022-11-18T02:17:56;9.90;99.90
46139;DHT22;32398;49.112;8.598;2022-11-18T02:20:29;9.90;99.90
46139;DHT22;32398;49.112;8.598;2022-11-18T02:23:00;9.90;99.90
46139;DHT22;32398;49.112;8.598;2022-11-18T02:25:32;9.90;99.90
46139;DHT22;32398;49.112;8.598;2022-11-18T02:28:08;9.90;99.90
46139;DHT22;32398;49.112;8.598;2022-11-18T02:30:43;9.90;99.90
46139;DHT22;32398;49.112;8.598;2022-11-18T02:33:11;9.90;99.90
46139;DHT22;32398;49.112;8.598;2022-11-18T02:35:41;9.80;99.90
46139;DHT22;32398;49.112;8.598;2022-11-18T02:38:09;9.90;99.90
46139;DHT22;32398;49.112;8.598;2022-11-18T02:40:38;9.80;99.90
46139;DHT22;32398;49.112;8.598;2022-11-18T02:43:08;9.90;99.90
46139;DHT22;32398;49.112;8.598;2022-11-18T02:45:35;9.80;99.90
46139;DHT22;32398;49.112;8.598;2022-11-18T02:48:04;9.90;99.90
46139;DHT22;32398;49.112;8.598;2022-11-18T02:50:32;9.90;99.90
46139;DHT22;32398;49.112;8.598;2022-11-18T02:53:00;9.80;99.90
46139;DHT22;32398;49.112;8.598;2022-11-18T02:55:29;9.80;99.90
46139;DHT22;32398;49.112;8.598;2022-11-18T02:57:57;9.80;99.90
46139;DHT22;32398;49.112;8.598;2022-11-18T03:00:24;9.80;99.90
46139;DHT22;32398;49.112;8.598;2022-11-18T03:02:50;9.80;99.90
46139;DHT22;32398;49.112;8.598;2022-11-18T03:05:18;9.80;99.90
46139;DHT22;32398;49.112;8.598;2022-11-18T03:07:50;9.80;99.90
46139;DHT22;32398;49.112;8.598;2022-11-18T03:10:17;9.80;99.90
46139;DHT22;32398;49.112;8.598;2022-11-18T03:12:45;9.80;99.90
46139;DHT22;32398;49.112;8.598;2022-11-18T03:15:15;9.80;99.90
46139;DHT22;32398;49.112;8.598;2022-11-18T03:17:45;9.80;99.90
46139;DHT22;32398;49.112;8.598;2022-11-18T03:20:14;9.80;99.90
46139;DHT22;32398;49.112;8.598;2022-11-18T03:22:46;9.80;99.90
46139;DHT22;32398;49.112;8.598;2022-11-18T03:25:18;9.80;99.90
46139;DHT22;32398;49.112;8.598;2022-11-18T03:27:48;9.80;99.90
46139;DHT22;32398;49.112;8.598;2022-11-18T03:30:18;9.80;99.90
46139;DHT22;32398;49.112;8.598;2022-11-18T03:32:46;9.80;99.90
46139;DHT22;32398;49.112;8.598;2022-11-18T03:35:16;9.80;99.90
46139;DHT22;32398;49.112;8.598;2022-11-18T03:37:43;9.80;99.90
46139;DHT22;32398;49.112;8.598;2022-11-18T03:40:14;9.80;99.90
46139;DHT22;32398;49.112;8.598;2022-11-18T03:42:42;9.80;99.90
46139;DHT22;32398;49.112;8.598;2022-11-18T03:45:11;9.70;99.90
46139;DHT22;32398;49.112;8.598;2022-11-18T03:47:40;9.80;99.90
46139;DHT22;32398;49.112;8.598;2022-11-18T03:50:09;9.70;99.90
46139;DHT22;32398;49.112;8.598;2022-11-18T03:52:38;9.80;99.90
46139;DHT22;32398;49.112;8.598;2022-11-18T03:55:07;9.70;99.90
46139;DHT22;32398;49.112;8.598;2022-11-18T03:57:37;9.80;99.90
46139;DHT22;32398;49.112;8.598;2022-11-18T04:00:06;9.70;99.90
46139;DHT22;32398;49.112;8.598;2022-11-18T04:02:33;9.70;99.90
46139;DHT22;32398;49.112;8.598;2022-11-18T04:05:01;9.70;99.90
46139;DHT22;32398;49.112;8.598;2022-11-18T04:07:29;9.70;99.90
46139;DHT22;32398;49.112;8.598;2022-11-18T04:09:58;9.80;99.90
46139;DHT22;32398;49.112;8.598;2022-11-18T04:12:28;9.70;99.90
46139;DHT22;32398;49.112;8.598;2022-11-18T04:14:58;9.70;99.90
46139;DHT22;32398;49.112;8.598;2022-11-18T04:17:26;9.70;99.90
46139;DHT22;32398;49.112;8.598;2022-11-18T04:19:52;9.70;99.90
46139;DHT22;32398;49.112;8.598;2022-11-18T04:22:20;9.70;99.90
46139;DHT22;32398;49.112;8.598;2022-11-18T04:24:46;9.70;99.90
46139;DHT22;32398;49.112;8.598;2022-11-18T04:27:13;9.70;99.90
46139;DHT22;32398;49.112;8.598;2022-11-18T04:29:39;9.70;99.90
46139;DHT22;32398;49.112;8.598;2022-11-18T04:32:07;9.70;99.90
46139;DHT22;32398;49.112;8.598;2022-11-18T04:34:34;9.70;99.90
46139;DHT22;32398;49.112;8.598;2022-11-18T04:37:00;9.70;99.90
46139;DHT22;32398;49.112;8.598;2022-11-18T04:39:27;9.70;99.90
46139;DHT22;32398;49.112;8.598;2022-11-18T04:41:54;9.70;99.90
46139;DHT22;32398;49.112;8.598;2022-11-18T04:44:20;9.70;99.90
46139;DHT22;32398;49.112;8.598;2022-11-18T04:46:47;9.70;99.90
46139;DHT22;32398;49.112;8.598;2022-11-18T04:49:15;9.60;99.90
46139;DHT22;32398;49.112;8.598;2022-11-18T04:51:42;9.70;99.90
46139;DHT22;32398;49.112;8.598;2022-11-18T04:54:09;9.60;99.90
46139;DHT22;32398;49.112;8.598;2022-11-18T04:56:36;9.70;99.90
46139;DHT22;32398;49.112;8.598;2022-11-18T04:59:03;9.60;99.90
46139;DHT22;32398;49.112;8.598;2022-11-18T05:01:30;9.60;99.90
46139;DHT22;32398;49.112;8.598;2022-11-18T05:03:58;9.60;99.90
46139;DHT22;32398;49.112;8.598;2022-11-18T05:06:26;9.60;99.90
46139;DHT22;32398;49.112;8.598;2022-11-18T05:08:53;9.60;99.90
46139;DHT22;32398;49.112;8.598;2022-11-18T05:11:19;9.60;99.90
46139;DHT22;32398;49.112;8.598;2022-11-18T05:14:03;9.60;99.90
46139;DHT22;32398;49.112;8.598;2022-11-18T05:16:30;9.60;99.90
46139;DHT22;32398;49.112;8.598;2022-11-18T05:18:56;9.60;99.90
46139;DHT22;32398;49.112;8.598;2022-11-18T05:21:23;9.60;99.90
46139;DHT22;32398;49.112;8.598;2022-11-18T05:23:51;9.60;99.90
46139;DHT22;32398;49.112;8.598;2022-11-18T05:26:17;9.60;99.90
46139;DHT22;32398;49.112;8.598;2022-11-18T05:28:44;9.50;99.90
46139;DHT22;32398;49.112;8.598;2022-11-18T05:31:11;9.60;99.90
46139;DHT22;32398;49.112;8.598;2022-11-18T05:33:38;9.60;99.90
46139;DHT22;32398;49.112;8.598;2022-11-18T05:36:05;9.50;99.90
46139;DHT22;32398;49.112;8.598;2022-11-18T05:38:32;9.50;99.90
46139;DHT22;32398;49.112;8.598;2022-11-18T05:41:01;9.50;99.90
46139;DHT22;32398;49.112;8.598;2022-11-18T05:43:28;9.50;99.90
46139;DHT22;32398;49.112;8.598;2022-11-18T05:45:53;9.50;99.90
46139;DHT22;32398;49.112;8.598;2022-11-18T05:48:20;9.50;99.90
46139;DHT22;32398;49.112;8.598;2022-11-18T05:50:47;9.50;99.90
46139;DHT22;32398;49.112;8.598;2022-11-18T05:53:14;9.50;99.90
46139;DHT22;32398;49.112;8.598;2022-11-18T05:55:43;9.50;99.90
46139;DHT22;32398;49.112;8.598;2022-11-18T05:58:13;9.50;99.90
46139;DHT22;32398;49.112;8.598;2022-11-18T06:00:40;9.50;99.90
46139;DHT22;32398;49.112;8.598;2022-11-18T06:03:08;9.50;99.90
46139;DHT22;32398;49.112;8.598;2022-11-18T06:05:38;9.50;99.90
46139;DHT22;32398;49.112;8.598;2022-11-18T06:08:04;9.40;99.90
46139;DHT22;32398;49.112;8.598;2022-11-18T06:10:31;9.50;99.90
46139;DHT22;32398;49.112;8.598;2022-11-18T06:13:01;9.50;99.90
46139;DHT22;32398;49.112;8.598;2022-11-18T06:15:31;9.40;99.90
46139;DHT22;32398;49.112;8.598;2022-11-18T06:17:59;9.40;99.90
46139;DHT22;32398;49.112;8.598;2022-11-18T06:20:27;9.40;99.90
46139;DHT22;32398;49.112;8.598;2022-11-18T06:22:55;9.40;99.90
46139;DHT22;32398;49.112;8.598;2022-11-18T06:25:22;9.40;99.90
46139;DHT22;32398;49.112;8.598;2022-11-18T06:27:49;9.40;99.90
46139;DHT22;32398;49.112;8.598;2022-11-18T06:30:17;9.40;99.90
46139;DHT22;32398;49.112;8.598;2022-11-18T06:32:45;9.40;99.90
46139;DHT22;32398;49.112;8.598;2022-11-18T06:35:11;9.40;99.90
46139;DHT22;32398;49.112;8.598;2022-11-18T06:37:38;9.40;99.90
46139;DHT22;32398;49.112;8.598;2022-11-18T06:40:05;9.30;99.90
46139;DHT22;32398;49.112;8.598;2022-11-18T06:42:31;9.30;99.90
46139;DHT22;32398;49.112;8.598;2022-11-18T06:45:16;9.30;99.90
46139;DHT22;32398;49.112;8.598;2022-11-18T06:47:42;9.30;99.90
46139;DHT22;32398;49.112;8.598;2022-11-18T06:50:09;9.30;99.90
46139;DHT22;32398;49.112;8.598;2022-11-18T06:52:36;9.30;99.90
46139;DHT22;32398;49.112;8.598;2022-11-18T06:55:03;9.30;99.90
46139;DHT22;32398;49.112;8.598;2022-11-18T06:57:31;9.30;99.90
46139;DHT22;32398;49.112;8.598;2022-11-18T06:59:58;9.30;99.90
46139;DHT22;32398;49.112;8.598;2022-11-18T07:02:24;9.30;99.90
46139;DHT22;32398;49.112;8.598;2022-11-18T07:04:51;9.30;99.90
46139;DHT22;32398;49.112;8.598;2022-11-18T07:07:19;9.20;99.90
46139;DHT22;32398;49.112;8.598;2022-11-18T07:09:45;9.20;99.90
46139;DHT22;32398;49.112;8.598;2022-11-18T07:12:12;9.20;99.90
46139;DHT22;32398;49.112;8.598;2022-11-18T07:14:38;9.20;99.90
46139;DHT22;32398;49.112;8.598;2022-11-18T07:17:05;9.20;99.90
46139;DHT22;32398;49.112;8.598;2022-11-18T07:19:31;9.20;99.90
46139;DHT22;32398;49.112;8.598;2022-11-18T07:21:58;9.20;99.90
46139;DHT22;32398;49.112;8.598;2022-11-18T07:24:26;9.20;99.90
46139;DHT22;32398;49.112;8.598;2022-11-18T07:26:53;9.20;99.90
46139;DHT22;32398;49.112;8.598;2022-11-18T07:29:19;9.20;99.90
46139;DHT22;32398;49.112;8.598;2022-11-18T07:31:46;9.20;99.90
46139;DHT22;32398;49.112;8.598;2022-11-18T07:34:13;9.20;99.90
46139;DHT22;32398;49.112;8.598;2022-11-18T07:36:39;9.10;99.90
46139;DHT22;32398;49.112;8.598;2022-11-18T07:39:06;9.20;99.90
46139;DHT22;32398;49.112;8.598;2022-11-18T07:41:34;9.10;99.90
46139;DHT22;32398;49.112;8.598;2022-11-18T07:44:01;9.10;99.90
46139;DHT22;32398;49.112;8.598;2022-11-18T07:46:29;9.10;99.90
46139;DHT22;32398;49.112;8.598;2022-11-18T07:48:57;9.10;99.90
46139;DHT22;32398;49.112;8.598;2022-11-18T07:51:24;9.10;99.90
46139;DHT22;32398;49.112;8.598;2022-11-18T07:53:51;9.10;99.90
46139;DHT22;32398;49.112;8.598;2022-11-18T07:56:18;9.10;99.90
46139;DHT22;32398;49.112;8.598;2022-11-18T07:58:46;9.10;99.90
46139;DHT22;32398;49.112;8.598;2022-11-18T08:01:14;9.10;99.90
46139;DHT22;32398;49.112;8.598;2022-11-18T08:03:41;9.10;99.90
46139;DHT22;32398;49.112;8.598;2022-11-18T08:06:08;9.10;99.90
46139;DHT22;32398;49.112;8.598;2022-11-18T08:08:36;9.10;99.90
46139;DHT22;32398;49.112;8.598;2022-11-18T08:11:03;9.10;99.90
46139;DHT22;32398;49.112;8.598;2022-11-18T08:13:30;9.10;99.90
46139;DHT22;32398;49.112;8.598;2022-11-18T08:15:59;9.10;99.90
46139;DHT22;32398;49.112;8.598;2022-11-18T08:18:26;9.00;99.90
46139;DHT22;32398;49.112;8.598;2022-11-18T08:20:53;9.10;99.90
46139;DHT22;32398;49.112;8.598;2022-11-18T08:23:20;9.10;99.90
46139;DHT22;32398;49.112;8.598;2022-11-18T08:25:46;9.00;99.90
46139;DHT22;32398;49.112;8.598;2022-11-18T08:28:13;9.00;99.90
46139;DHT22;32398;49.112;8.598;2022-11-18T08:30:40;9.00;99.90
46139;DHT22;32398;49.112;8.598;2022-11-18T08:33:07;9.00;99.90
46139;DHT22;32398;49.112;8.598;2022-11-18T08:35:35;9.10;99.90
46139;DHT22;32398;49.112;8.598;2022-11-18T08:38:01;9.00;99.90
46139;DHT22;32398;49.112;8.598;2022-11-18T08:40:28;9.00;99.90
46139;DHT22;32398;49.112;8.598;2022-11-18T08:42:54;9.00;99.90
46139;DHT22;32398;49.112;8.598;2022-11-18T08:45:21;9.00;99.90
46139;DHT22;32398;49.112;8.598;2022-11-18T08:47:47;9.00;99.90
46139;DHT22;32398;49.112;8.598;2022-11-18T08:50:16;9.00;99.90
46139;DHT22;32398;49.112;8.598;2022-11-18T08:52:43;9.00;99.90
46139;DHT22;32398;49.112;8.598;2022-11-18T08:55:09;9.10;99.90
46139;DHT22;32398;49.112;8.598;2022-11-18T08:57:36;9.10;99.90
46139;DHT22;32398;49.112;8.598;2022-11-18T09:00:02;9.00;99.90
46139;DHT22;32398;49.112;8.598;2022-11-18T09:02:29;9.10;99.90
46139;DHT22;32398;49.112;8.598;2022-11-18T09:04:56;9.00;99.90
46139;DHT22;32398;49.112;8.598;2022-11-18T09:07:24;9.00;99.90
46139;DHT22;32398;49.112;8.598;2022-11-18T09:09:50;9.10;99.90
46139;DHT22;32398;49.112;8.598;2022-11-18T09:12:17;9.10;99.90
46139;DHT22;32398;49.112;8.598;2022-11-18T09:14:43;9.10;99.90
46139;DHT22;32398;49.112;8.598;2022-11-18T09:17:10;9.10;99.90
46139;DHT22;32398;49.112;8.598;2022-11-18T09:19:37;9.10;99.90
46139;DHT22;32398;49.112;8.598;2022-11-18T09:22:04;9.10;99.90
46139;DHT22;32398;49.112;8.598;2022-11-18T09:24:32;9.10;99.90
46139;DHT22;32398;49.112;8.598;2022-11-18T09:27:01;9.10;99.90
46139;DHT22;32398;49.112;8.598;2022-11-18T09:29:27;9.10;99.90
46139;DHT22;32398;49.112;8.598;2022-11-18T09:31:54;9.10;99.90
46139;DHT22;32398;49.112;8.598;2022-11-18T09:34:21;9.00;99.90
46139;DHT22;32398;49.112;8.598;2022-11-18T09:36:48;9.10;99.90
46139;DHT22;32398;49.112;8.598;2022-11-18T09:39:14;9.10;99.90
46139;DHT22;32398;49.112;8.598;2022-11-18T09:41:44;9.20;99.90
46139;DHT22;32398;49.112;8.598;2022-11-18T09:44:14;9.10;99.90
46139;DHT22;32398;49.112;8.598;2022-11-18T09:46:46;9.20;99.90
46139;DHT22;32398;49.112;8.598;2022-11-18T09:49:16;9.20;99.90
46139;DHT22;32398;49.112;8.598;2022-11-18T09:51:46;9.20;99.90
46139;DHT22;32398;49.112;8.598;2022-11-18T09:54:16;9.20;99.90
46139;DHT22;32398;49.112;8.598;2022-11-18T09:56:45;9.20;99.90
46139;DHT22;32398;49.112;8.598;2022-11-18T09:59:12;9.20;99.90
46139;DHT22;32398;49.112;8.598;2022-11-18T10:01:39;9.20;99.90
46139;DHT22;32398;49.112;8.598;2022-11-18T10:04:11;9.20;99.90
46139;DHT22;32398;49.112;8.598;2022-11-18T10:06:38;9.20;99.90
46139;DHT22;32398;49.112;8.598;2022-11-18T10:09:08;9.20;99.90
46139;DHT22;32398;49.112;8.598;2022-11-18T10:11:39;9.20;99.90
46139;DHT22;32398;49.112;8.598;2022-11-18T10:14:17;9.20;99.90
46139;DHT22;32398;49.112;8.598;2022-11-18T10:16:46;9.20;99.90
46139;DHT22;32398;49.112;8.598;2022-11-18T10:19:21;9.20;99.90
46139;DHT22;32398;49.112;8.598;2022-11-18T10:21:52;9.20;99.90
46139;DHT22;32398;49.112;8.598;2022-11-18T10:24:21;9.20;99.90
46139;DHT22;32398;49.112;8.598;2022-11-18T10:26:53;9.20;99.90
46139;DHT22;32398;49.112;8.598;2022-11-18T10:29:21;9.20;99.90
46139;DHT22;32398;49.112;8.598;2022-11-18T10:31:52;9.30;99.90
46139;DHT22;32398;49.112;8.598;2022-11-18T10:34:19;9.30;99.90
46139;DHT22;32398;49.112;8.598;2022-11-18T10:37:00;9.30;99.90
46139;DHT22;32398;49.112;8.598;2022-11-18T10:39:27;9.30;99.90
46139;DHT22;32398;49.112;8.598;2022-11-18T10:41:55;9.30;99.90
46139;DHT22;32398;49.112;8.598;2022-11-18T10:44:28;9.30;99.90
46139;DHT22;32398;49.112;8.598;2022-11-18T10:46:55;9.30;99.90
46139;DHT22;32398;49.112;8.598;2022-11-18T10:49:21;9.30;99.90
46139;DHT22;32398;49.112;8.598;2022-11-18T10:52:04;9.30;99.90
46139;DHT22;32398;49.112;8.598;2022-11-18T10:54:31;9.30;99.90
46139;DHT22;32398;49.112;8.598;2022-11-18T10:56:59;9.40;99.90
46139;DHT22;32398;49.112;8.598;2022-11-18T10:59:31;9.40;99.90
46139;DHT22;32398;49.112;8.598;2022-11-18T11:01:59;9.40;99.90
46139;DHT22;32398;49.112;8.598;2022-11-18T11:04:26;9.40;99.90
46139;DHT22;32398;49.112;8.598;2022-11-18T11:06:53;9.40;99.90
46139;DHT22;32398;49.112;8.598;2022-11-18T11:09:23;9.40;99.90
46139;DHT22;32398;49.112;8.598;2022-11-18T11:11:54;9.40;99.90
46139;DHT22;32398;49.112;8.598;2022-11-18T11:14:22;9.40;99.90
46139;DHT22;32398;49.112;8.598;2022-11-18T11:16:55;9.40;99.90
46139;DHT22;32398;49.112;8.598;2022-11-18T11:19:23;9.40;99.90
46139;DHT22;32398;49.112;8.598;2022-11-18T11:21:50;9.50;99.90
46139;DHT22;32398;49.112;8.598;2022-11-18T11:24:17;9.50;99.90
46139;DHT22;32398;49.112;8.598;2022-11-18T11:26:45;9.50;99.90
46139;DHT22;32398;49.112;8.598;2022-11-18T11:29:18;9.50;99.90
46139;DHT22;32398;49.112;8.598;2022-11-18T11:31:51;9.50;99.90
46139;DHT22;32398;49.112;8.598;2022-11-18T11:34:21;9.50;99.90
46139;DHT22;32398;49.112;8.598;2022-11-18T11:36:52;9.50;99.90
46139;DHT22;32398;49.112;8.598;2022-11-18T11:39:33;9.50;99.90
46139;DHT22;32398;49.112;8.598;2022-11-18T11:42:04;9.50;99.90
46139;DHT22;32398;49.112;8.598;2022-11-18T11:44:38;9.60;99.90
46139;DHT22;32398;49.112;8.598;2022-11-18T11:47:11;9.60;99.90
46139;DHT22;32398;49.112;8.598;2022-11-18T11:50:01;9.60;99.90
46139;DHT22;32398;49.112;8.598;2022-11-18T11:52:30;9.60;99.90
46139;DHT22;32398;49.112;8.598;2022-11-18T11:55:02;9.60;99.90
46139;DHT22;32398;49.112;8.598;2022-11-18T11:57:36;9.60;99.90
46139;DHT22;32398;49.112;8.598;2022-11-18T12:00:08;9.60;99.90
46139;DHT22;32398;49.112;8.598;2022-11-18T12:02:43;9.60;99.90
46139;DHT22;32398;49.112;8.598;2022-11-18T12:05:16;9.60;99.90
46139;DHT22;32398;49.112;8.598;2022-11-18T12:07:46;9.60;99.90
46139;DHT22;32398;49.112;8.598;2022-11-18T12:10:17;9.60;99.90
46139;DHT22;32398;49.112;8.598;2022-11-18T12:12:48;9.60;99.90
46139;DHT22;32398;49.112;8.598;2022-11-18T12:15:18;9.70;99.90
46139;DHT22;32398;49.112;8.598;2022-11-18T12:17:47;9.70;99.90
46139;DHT22;32398;49.112;8.598;2022-11-18T12:20:36;9.70;99.90
46139;DHT22;32398;49.112;8.598;2022-11-18T12:23:11;9.70;99.90
46139;DHT22;32398;49.112;8.598;2022-11-18T12:25:54;9.70;99.90
46139;DHT22;32398;49.112;8.598;2022-11-18T12:28:25;9.70;99.90
46139;DHT22;32398;49.112;8.598;2022-11-18T12:33:37;9.70;99.90
46139;DHT22;32398;49.112;8.598;2022-11-18T12:36:08;9.70;99.90
46139;DHT22;32398;49.112;8.598;2022-11-18T12:38:34;9.70;99.90
46139;DHT22;32398;49.112;8.598;2022-11-18T12:41:01;9.70;99.90
46139;DHT22;32398;49.112;8.598;2022-11-18T12:51:57;9.80;99.90
46139;DHT22;32398;49.112;8.598;2022-11-18T12:54:25;9.80;99.90
46139;DHT22;32398;49.112;8.598;2022-11-18T12:56:52;9.80;99.90
46139;DHT22;32398;49.112;8.598;2022-11-18T12:59:25;9.80;99.90
46139;DHT22;32398;49.112;8.598;2022-11-18T13:02:00;9.80;99.90
46139;DHT22;32398;49.112;8.598;2022-11-18T13:04:26;9.80;99.90
46139;DHT22;32398;49.112;8.598;2022-11-18T13:06:53;9.90;99.90
46139;DHT22;32398;49.112;8.598;2022-11-18T13:09:26;9.90;99.90
46139;DHT22;32398;49.112;8.598;2022-11-18T13:11:54;9.90;99.90
46139;DHT22;32398;49.112;8.598;2022-11-18T13:14:22;9.90;99.90
46139;DHT22;32398;49.112;8.598;2022-11-18T13:17:23;9.90;99.90
46139;DHT22;32398;49.112;8.598;2022-11-18T13:20:17;9.90;99.90
46139;DHT22;32398;49.112;8.598;2022-11-18T13:22:47;9.90;99.90
46139;DHT22;32398;49.112;8.598;2022-11-18T13:25:33;10.00;99.90
46139;DHT22;32398;49.112;8.598;2022-11-18T13:28:01;9.90;99.90
46139;DHT22;32398;49.112;8.598;2022-11-18T13:30:29;9.90;99.90
46139;DHT22;32398;49.112;8.598;2022-11-18T13:32:57;9.90;99.90
46139;DHT22;32398;49.112;8.598;2022-11-18T13:35:24;10.00;99.90
46139;DHT22;32398;49.112;8.598;2022-11-18T13:37:54;10.00;99.90
46139;DHT22;32398;49.112;8.598;2022-11-18T13:40:22;10.00;99.90
46139;DHT22;32398;49.112;8.598;2022-11-18T13:42:50;10.00;99.90
46139;DHT22;32398;49.112;8.598;2022-11-18T13:45:17;10.00;99.90
46139;DHT22;32398;49.112;8.598;2022-11-18T13:47:45;10.00;99.90
46139;DHT22;32398;49.112;8.598;2022-11-18T13:50:14;10.00;99.90
46139;DHT22;32398;49.112;8.598;2022-11-18T13:52:42;10.00;99.90
46139;DHT22;32398;49.112;8.598;2022-11-18T13:55:13;10.00;99.90
46139;DHT22;32398;49.112;8.598;2022-11-18T13:57:40;10.00;99.90
46139;DHT22;32398;49.112;8.598;2022-11-18T14:00:18;10.00;99.90
46139;DHT22;32398;49.112;8.598;2022-11-18T14:02:46;9.90;99.80
46139;DHT22;32398;49.112;8.598;2022-11-18T14:05:16;9.90;99.80
46139;DHT22;32398;49.112;8.598;2022-11-18T14:07:51;10.00;99.90
46139;DHT22;32398;49.112;8.598;2022-11-18T14:10:27;10.00;99.90
46139;DHT22;32398;49.112;8.598;2022-11-18T14:12:56;10.00;99.90
46139;DHT22;32398;49.112;8.598;2022-11-18T14:15:33;10.00;99.90
46139;DHT22;32398;49.112;8.598;2022-11-18T14:18:00;9.90;99.90
46139;DHT22;32398;49.112;8.598;2022-11-18T14:20:28;10.00;99.90
46139;DHT22;32398;49.112;8.598;2022-11-18T14:22:55;9.90;99.90
46139;DHT22;32398;49.112;8.598;2022-11-18T14:25:23;10.00;99.90
46139;DHT22;32398;49.112;8.598;2022-11-18T14:27:53;9.90;99.90
46139;DHT22;32398;49.112;8.598;2022-11-18T14:30:28;10.00;99.90
46139;DHT22;32398;49.112;8.598;2022-11-18T14:33:13;9.90;99.90
46139;DHT22;32398;49.112;8.598;2022-11-18T14:35:40;9.90;99.90
46139;DHT22;32398;49.112;8.598;2022-11-18T14:38:09;9.90;99.90
46139;DHT22;32398;49.112;8.598;2022-11-18T14:40:37;9.90;99.90
46139;DHT22;32398;49.112;8.598;2022-11-18T14:43:03;9.90;99.90
46139;DHT22;32398;49.112;8.598;2022-11-18T14:45:30;9.90;99.90
46139;DHT22;32398;49.112;8.598;2022-11-18T14:47:56;9.90;99.90
46139;DHT22;32398;49.112;8.598;2022-11-18T14:50:24;9.90;99.90
46139;DHT22;32398;49.112;8.598;2022-11-18T14:52:51;9.90;99.90
46139;DHT22;32398;49.112;8.598;2022-11-18T14:55:19;9.90;99.90
46139;DHT22;32398;49.112;8.598;2022-11-18T14:57:46;9.90;99.90
46139;DHT22;32398;49.112;8.598;2022-11-18T15:00:13;9.90;99.90
46139;DHT22;32398;49.112;8.598;2022-11-18T15:02:40;9.80;99.90
46139;DHT22;32398;49.112;8.598;2022-11-18T15:05:07;9.80;99.90
46139;DHT22;32398;49.112;8.598;2022-11-18T15:07:35;9.80;99.90
46139;DHT22;32398;49.112;8.598;2022-11-18T15:10:02;9.80;99.90
46139;DHT22;32398;49.112;8.598;2022-11-18T15:12:28;9.80;99.90
46139;DHT22;32398;49.112;8.598;2022-11-18T15:14:55;9.80;99.90
46139;DHT22;32398;49.112;8.598;2022-11-18T15:17:22;9.80;99.90
46139;DHT22;32398;49.112;8.598;2022-11-18T15:19:48;9.80;99.90
46139;DHT22;32398;49.112;8.598;2022-11-18T15:22:15;9.80;99.90
46139;DHT22;32398;49.112;8.598;2022-11-18T15:24:43;9.70;99.90
46139;DHT22;32398;49.112;8.598;2022-11-18T15:27:09;9.70;99.90
46139;DHT22;32398;49.112;8.598;2022-11-18T15:29:36;9.80;99.90
46139;DHT22;32398;49.112;8.598;2022-11-18T15:32:02;9.70;99.90
46139;DHT22;32398;49.112;8.598;2022-11-18T15:34:29;9.70;99.90
46139;DHT22;32398;49.112;8.598;2022-11-18T15:36:56;9.70;99.90
46139;DHT22;32398;49.112;8.598;2022-11-18T15:39:22;9.70;99.90
46139;DHT22;32398;49.112;8.598;2022-11-18T15:41:50;9.70;99.90
46139;DHT22;32398;49.112;8.598;2022-11-18T15:44:17;9.70;99.90
46139;DHT22;32398;49.112;8.598;2022-11-18T15:46:43;9.60;99.90
46139;DHT22;32398;49.112;8.598;2022-11-18T15:49:12;9.60;99.90
46139;DHT22;32398;49.112;8.598;2022-11-18T15:51:39;9.60;99.90
46139;DHT22;32398;49.112;8.598;2022-11-18T15:54:06;9.60;99.90
46139;DHT22;32398;49.112;8.598;2022-11-18T15:56:32;9.60;99.90
46139;DHT22;32398;49.112;8.598;2022-11-18T15:59:01;9.60;99.90
46139;DHT22;32398;49.112;8.598;2022-11-18T16:01:28;9.60;99.90
46139;DHT22;32398;49.112;8.598;2022-11-18T16:03:55;9.60;99.90
46139;DHT22;32398;49.112;8.598;2022-11-18T16:06:23;9.60;99.90